Terminal Aerodrome Forecast
Issued by NWS Mt. Holly, NJ

Home | Current Version | Previous Version | Text Only | Print | Product List | Glossary On
Versions: 1 2 3 4 5 6 7 8 9 10 11 12 13 14 15 16 17 18 19 20 21 22 23
927
FTUS41 KPHI 041733
TAFABE
TAF
KABE 041733Z 0418/0518 07008KT 4SM BR BKN008 OVC012
      TEMPO 0418/0422 2SM -SHRA SCT008 OVC012
     FM050100 06006KT 4SM BR OVC006
     FM050400 05006KT 3SM -DZ BR OVC003
     FM051400 04008KT 6SM BR OVC006
     FM051700 03008KT P6SM OVC012=

USA.gov is the U.S. government's official web portal to all federal, state and local government web resources and services.